首页
METAR-TAF:

METAR-TAF

机场 :

Carroll, 艾奥瓦州, 美国

纬度: 42-03N, 经度: 094-47W, 海拔: 375米

当前天气观测

该预报发布于14分钟前的04:35 UTC
风速13节,风向西北
温度 7°C
湿度 93%
气压 1006 hPa
能見度: 16.1公里
多云层高于4100英尺
多云层高于4700英尺

METAR: KCIN 190435Z AUTO 31013KT 10SM BKN041 BKN047 07/06 A2970 RMK AO2

时间: 22:49 (04:49 UTC)


TAF: 丢失

超过4000个机场的气象观测和天气预报(METAR&TAF报告)。

可查询的气象台以黄色和红色小点在地图上表示。

将鼠标移到小点上方,可查看气象台名称。

然后点击查看天气观测和预报。

如需切换地图:点击带黑十字的绿色按钮放大地图;点击带横线的绿色按钮缩小地图;或者点击绿色箭头查看邻近地区的地图。


METAR-TAF: